EKVD weather

Kolding Vamdrup Airfield
Kolding / Vamdrup, South Denmark, Denmark

Public forecast

Using degrees Celsius for public forecast. Weather courtesy of forecast.io.

METAR (pilot weather report)

Retrieved 2019/07/18 22:20 UTC (16 minutes ago):

EKVD 182220Z AUTO 14006KT //// ///////// 17/13 Q1010

TAF (pilot weather forecast)

Closest forecast is Skrydstrup Air Base, 13.1 nm (24.3 km) S. Retrieved 2019/07/18 21:31 UTC (1 hour ago):

TAF EKSP 182018Z 1821/1921 VRB05KT 9999 BKN120 TEMPO 1823/1907 4000 SHRA BR SCT040CB BECMG 1907/1910 28008KT TEMPO 1907/1913 6000 -SHRA BKN008 SCT040CB